createdAt,value
2018-09-30T00:00:42.580Z,5.50
2018-09-30T00:03:24.359Z,5.50
2018-09-30T00:05:52.510Z,5.60
2018-09-30T00:08:22.108Z,5.60
2018-09-30T00:10:50.211Z,5.50
2018-09-30T00:13:24.264Z,5.50
2018-09-30T00:15:55.250Z,5.40
2018-09-30T00:18:23.640Z,5.40
2018-09-30T00:20:51.759Z,5.30
2018-09-30T00:23:23.808Z,5.30
2018-09-30T00:25:59.312Z,5.30
2018-09-30T00:28:27.673Z,5.30
2018-09-30T00:30:57.365Z,5.30
2018-09-30T00:33:41.089Z,5.30
2018-09-30T00:36:13.573Z,5.20
2018-09-30T00:38:42.771Z,5.30
2018-09-30T00:41:11.073Z,5.20
2018-09-30T00:43:56.317Z,5.30
2018-09-30T00:46:24.567Z,5.20
2018-09-30T00:48:53.129Z,5.10
2018-09-30T00:51:21.339Z,5.10
2018-09-30T00:53:55.993Z,5.00
2018-09-30T00:56:26.128Z,5.10
2018-09-30T00:58:56.637Z,5.00
2018-09-30T01:01:28.980Z,5.10
2018-09-30T01:04:05.271Z,5.00
2018-09-30T01:06:33.435Z,5.10
2018-09-30T01:09:12.357Z,5.10
2018-09-30T01:11:41.532Z,5.10
2018-09-30T01:14:11.328Z,5.10
2018-09-30T01:16:42.515Z,5.00
2018-09-30T01:19:10.716Z,5.10
2018-09-30T01:24:41.673Z,4.90
2018-09-30T01:27:09.918Z,4.90
2018-09-30T01:35:30.366Z,5.00
2018-09-30T01:37:58.635Z,4.90
2018-09-30T01:40:28.484Z,4.80
2018-09-30T01:42:56.871Z,4.90
2018-09-30T01:45:25.151Z,4.90
2018-09-30T01:47:53.327Z,4.80
2018-09-30T01:50:21.551Z,4.80
2018-09-30T01:52:53.041Z,4.80
2018-09-30T01:55:25.075Z,4.90
2018-09-30T01:57:54.093Z,4.90
2018-09-30T02:00:22.471Z,5.00
2018-09-30T02:02:50.745Z,4.80
2018-09-30T02:05:35.654Z,4.80
2018-09-30T02:08:03.757Z,4.70
2018-09-30T02:10:31.905Z,4.60
2018-09-30T02:13:00.135Z,4.60
2018-09-30T02:15:29.528Z,4.50
2018-09-30T02:17:57.787Z,4.40
2018-09-30T02:20:26.170Z,4.40
2018-09-30T02:22:54.528Z,4.40
2018-09-30T02:25:22.916Z,4.40
2018-09-30T02:27:51.272Z,4.40
2018-09-30T02:30:19.679Z,4.30
2018-09-30T02:32:47.956Z,4.40
2018-09-30T02:35:16.333Z,4.30
2018-09-30T02:37:44.724Z,4.30
2018-09-30T02:40:13.315Z,4.30
2018-09-30T02:42:41.945Z,4.20
2018-09-30T02:45:11.097Z,4.20
2018-09-30T02:47:39.309Z,4.20
2018-09-30T02:50:07.496Z,4.10
2018-09-30T02:52:35.804Z,4.20
2018-09-30T02:55:06.077Z,4.20
2018-09-30T02:57:34.420Z,4.10
2018-09-30T03:00:03.075Z,4.10
2018-09-30T03:02:31.453Z,4.00
2018-09-30T03:05:01.573Z,3.90
2018-09-30T03:08:34.493Z,3.80
2018-09-30T03:11:02.675Z,3.80
2018-09-30T03:13:32.907Z,3.80
2018-09-30T03:16:01.107Z,3.80
2018-09-30T03:18:29.349Z,3.90
2018-09-30T03:20:57.900Z,3.90
2018-09-30T03:23:29.111Z,3.90
2018-09-30T03:25:58.323Z,3.90
2018-09-30T03:28:27.143Z,4.00
2018-09-30T03:30:55.483Z,3.90
2018-09-30T03:33:25.611Z,3.80
2018-09-30T03:35:53.738Z,3.90
2018-09-30T03:38:21.887Z,3.80
2018-09-30T03:40:50.105Z,3.80
2018-09-30T03:43:18.421Z,3.90
2018-09-30T03:45:46.543Z,3.80
2018-09-30T03:48:14.727Z,3.80
2018-09-30T03:50:43.001Z,3.90
2018-09-30T03:53:11.612Z,3.90
2018-09-30T03:55:39.791Z,3.80
2018-09-30T03:58:07.998Z,3.70
2018-09-30T04:00:36.125Z,3.80
2018-09-30T04:03:06.225Z,3.80
2018-09-30T04:05:34.394Z,3.80
2018-09-30T04:08:02.780Z,3.80
2018-09-30T04:10:30.851Z,3.90
2018-09-30T04:12:59.161Z,3.90
2018-09-30T04:15:27.282Z,4.00
2018-09-30T04:17:55.675Z,3.90
2018-09-30T04:20:24.028Z,3.70
2018-09-30T04:22:52.406Z,3.60
2018-09-30T04:25:20.839Z,3.60
2018-09-30T04:27:49.128Z,3.60
2018-09-30T04:30:17.271Z,3.50
2018-09-30T04:32:45.539Z,3.50
2018-09-30T04:35:14.806Z,3.50
2018-09-30T04:37:43.150Z,3.50
2018-09-30T04:40:11.439Z,3.50
2018-09-30T04:42:41.322Z,3.30
2018-09-30T04:45:12.946Z,3.30
2018-09-30T04:47:41.404Z,3.20
2018-09-30T04:50:09.730Z,3.20
2018-09-30T04:52:37.951Z,3.20
2018-09-30T04:55:12.051Z,3.10
2018-09-30T05:00:08.391Z,3.10
2018-09-30T05:02:37.097Z,3.10
2018-09-30T05:05:05.410Z,3.10
2018-09-30T05:07:33.846Z,3.00
2018-09-30T05:10:05.615Z,3.00
2018-09-30T05:12:34.809Z,3.00
2018-09-30T05:15:16.388Z,3.00
2018-09-30T05:17:44.727Z,3.00
2018-09-30T05:20:13.023Z,2.90
2018-09-30T05:22:41.199Z,2.80
2018-09-30T05:25:10.346Z,2.80
2018-09-30T05:27:38.766Z,2.80
2018-09-30T05:30:06.967Z,2.90
2018-09-30T05:32:35.195Z,2.90
2018-09-30T05:35:04.569Z,2.90
2018-09-30T05:37:32.863Z,2.90
2018-09-30T05:40:01.092Z,2.90
2018-09-30T05:42:29.459Z,2.80
2018-09-30T05:45:15.791Z,2.90
2018-09-30T05:47:50.593Z,2.80
2018-09-30T05:50:23.060Z,2.80
2018-09-30T05:56:42.044Z,2.80
2018-09-30T05:59:31.393Z,2.90
2018-09-30T06:05:34.267Z,3.10
2018-09-30T06:11:09.296Z,3.30
2018-09-30T06:13:44.648Z,3.30
2018-09-30T06:16:13.803Z,3.30
2018-09-30T06:18:46.273Z,3.30
2018-09-30T06:21:26.461Z,3.30
2018-09-30T06:24:09.618Z,3.40
2018-09-30T06:29:37.109Z,3.40
2018-09-30T06:32:13.810Z,3.50
2018-09-30T06:34:46.039Z,3.50
2018-09-30T06:54:04.838Z,4.30
2018-09-30T06:56:37.830Z,4.40
2018-09-30T07:33:43.672Z,4.50
2018-09-30T07:39:38.670Z,6.30
2018-09-30T07:42:15.832Z,6.50
2018-09-30T07:44:59.698Z,6.70
2018-09-30T07:47:30.964Z,6.80
2018-09-30T07:49:59.126Z,7.00
2018-09-30T07:52:34.034Z,7.20
2018-09-30T07:58:05.683Z,7.50
2018-09-30T08:00:34.640Z,7.70
2018-09-30T08:03:10.665Z,7.90
2018-09-30T08:05:44.780Z,8.00
2018-09-30T08:08:13.843Z,8.10
2018-09-30T08:10:44.109Z,8.20
2018-09-30T08:13:16.403Z,8.40
2018-09-30T08:15:44.789Z,8.30
2018-09-30T08:18:12.926Z,8.60
2018-09-30T08:20:43.407Z,8.70
2018-09-30T08:23:14.574Z,8.80
2018-09-30T08:25:43.998Z,9.00
2018-09-30T08:28:12.132Z,9.20
2018-09-30T08:30:40.533Z,9.30
2018-09-30T08:33:09.727Z,9.50
2018-09-30T08:35:37.896Z,9.60
2018-09-30T08:38:29.367Z,9.70
2018-09-30T08:41:05.001Z,9.80
2018-09-30T08:43:43.561Z,10.00
2018-09-30T08:46:11.785Z,10.10
2018-09-30T08:48:41.333Z,10.30
2018-09-30T08:51:12.814Z,10.40
2018-09-30T08:53:49.614Z,10.50
2018-09-30T08:56:20.579Z,10.70
2018-09-30T09:01:50.147Z,11.00
2018-09-30T09:04:25.533Z,11.20
2018-09-30T09:06:54.691Z,11.40
2018-09-30T09:09:23.497Z,11.60
2018-09-30T09:11:55.075Z,11.80
2018-09-30T09:17:21.313Z,12.00
2018-09-30T09:19:50.373Z,12.10
2018-09-30T09:22:18.775Z,12.30
2018-09-30T09:25:05.741Z,12.40
2018-09-30T09:27:34.464Z,12.60
2018-09-30T09:30:03.083Z,12.70
2018-09-30T09:32:35.518Z,12.90
2018-09-30T09:46:53.891Z,13.30
2018-09-30T09:49:23.046Z,13.50
2018-09-30T09:51:51.462Z,13.60
2018-09-30T09:54:24.340Z,13.70
2018-09-30T09:56:52.376Z,13.80
2018-09-30T09:59:20.814Z,13.90
2018-09-30T10:01:48.894Z,14.10
2018-09-30T10:21:34.713Z,14.60
2018-09-30T10:41:20.500Z,15.40
2018-09-30T11:01:06.025Z,16.20
2018-09-30T11:03:46.109Z,16.30
2018-09-30T11:06:14.580Z,16.20
2018-09-30T11:08:43.215Z,16.20
2018-09-30T11:11:12.391Z,16.40
2018-09-30T11:30:56.466Z,16.70
2018-09-30T11:36:40.876Z,16.60
2018-09-30T11:39:11.016Z,16.70
2018-09-30T11:41:57.620Z,16.90
2018-09-30T11:47:28.402Z,17.30
2018-09-30T11:49:56.520Z,17.40
2018-09-30T11:52:27.793Z,17.50
2018-09-30T11:55:02.458Z,17.50
2018-09-30T11:57:32.911Z,17.50
2018-09-30T12:00:04.895Z,17.50
2018-09-30T12:02:33.434Z,17.60
2018-09-30T12:05:24.370Z,17.40
2018-09-30T12:07:54.310Z,17.50
2018-09-30T12:10:23.199Z,17.40
2018-09-30T12:12:53.280Z,17.20
2018-09-30T12:15:41.718Z,17.00
2018-09-30T12:18:09.856Z,16.90
2018-09-30T12:20:38.062Z,16.90
2018-09-30T12:23:08.508Z,16.80
2018-09-30T12:25:36.651Z,16.60
2018-09-30T12:28:04.945Z,16.50
2018-09-30T12:30:33.582Z,16.40
2018-09-30T12:33:01.826Z,16.40
2018-09-30T12:35:31.824Z,16.40
2018-09-30T12:38:00.326Z,16.30
2018-09-30T12:40:28.885Z,16.40
2018-09-30T12:42:56.882Z,16.40
2018-09-30T12:45:25.134Z,16.40
2018-09-30T12:47:53.213Z,16.40
2018-09-30T12:50:21.432Z,16.40
2018-09-30T12:52:49.901Z,16.40
2018-09-30T12:55:17.876Z,16.40
2018-09-30T12:57:45.903Z,16.60
2018-09-30T13:00:14.568Z,16.50
2018-09-30T13:02:42.591Z,16.50
2018-09-30T13:05:10.794Z,16.50
2018-09-30T13:07:38.913Z,16.80
2018-09-30T13:10:07.256Z,16.80
2018-09-30T13:12:35.359Z,17.00
2018-09-30T13:15:05.452Z,17.30
2018-09-30T13:17:33.672Z,17.60
2018-09-30T13:20:02.005Z,18.00
2018-09-30T13:22:30.648Z,17.90
2018-09-30T13:25:02.728Z,17.90
2018-09-30T13:27:30.915Z,17.80
2018-09-30T13:29:58.954Z,17.80
2018-09-30T13:32:27.103Z,18.00
2018-09-30T13:34:56.276Z,18.10
2018-09-30T13:37:24.450Z,18.20
2018-09-30T13:39:52.567Z,18.00
2018-09-30T13:42:20.732Z,17.90
2018-09-30T13:44:54.909Z,17.80
2018-09-30T13:47:23.144Z,17.80
2018-09-30T13:49:52.392Z,17.90
2018-09-30T13:52:20.620Z,18.00
2018-09-30T13:54:55.306Z,18.00
2018-09-30T13:57:23.494Z,18.10
2018-09-30T13:59:51.894Z,18.10
2018-09-30T14:03:13.466Z,17.90
2018-09-30T14:05:41.637Z,17.90
2018-09-30T14:08:09.866Z,17.90
2018-09-30T14:10:39.152Z,17.70
2018-09-30T14:13:13.270Z,17.60
2018-09-30T14:15:43.468Z,17.70
2018-09-30T14:18:11.592Z,17.70
2018-09-30T14:20:41.399Z,17.70
2018-09-30T14:23:22.258Z,17.70
2018-09-30T14:25:50.360Z,17.70
2018-09-30T14:28:18.528Z,17.70
2018-09-30T14:30:46.693Z,17.70
2018-09-30T14:33:23.068Z,17.60
2018-09-30T14:35:51.187Z,17.70
2018-09-30T14:38:20.036Z,17.60
2018-09-30T14:40:48.170Z,17.60
2018-09-30T14:43:18.347Z,17.60
2018-09-30T14:45:46.440Z,17.60
2018-09-30T14:48:14.645Z,17.60
2018-09-30T14:50:42.898Z,17.50
2018-09-30T14:53:19.079Z,17.50
2018-09-30T14:55:47.858Z,17.60
2018-09-30T14:58:15.975Z,17.50
2018-09-30T15:00:44.148Z,17.40
2018-09-30T15:03:13.746Z,17.40
2018-09-30T15:05:41.896Z,17.50
2018-09-30T15:08:09.978Z,17.70
2018-09-30T15:10:38.076Z,17.70
2018-09-30T15:13:13.783Z,17.70
2018-09-30T15:15:41.989Z,17.70
2018-09-30T15:18:14.262Z,17.60
2018-09-30T15:20:45.090Z,17.60
2018-09-30T15:26:17.352Z,17.80
2018-09-30T15:31:47.767Z,18.00
2018-09-30T15:34:29.555Z,17.90
2018-09-30T15:36:58.910Z,17.70
2018-09-30T16:03:36.848Z,17.50
2018-09-30T16:06:05.024Z,16.30
2018-09-30T16:08:33.777Z,16.20
2018-09-30T16:11:02.278Z,16.10
2018-09-30T16:13:30.403Z,15.90
2018-09-30T16:15:59.194Z,15.90
2018-09-30T16:18:27.357Z,15.80
2018-09-30T16:20:55.765Z,15.70
2018-09-30T16:23:37.740Z,15.70
2018-09-30T16:26:06.275Z,15.60
2018-09-30T16:28:34.691Z,15.50
2018-09-30T16:31:03.016Z,15.50
2018-09-30T16:33:33.228Z,15.40
2018-09-30T16:36:04.926Z,15.40
2018-09-30T16:38:33.151Z,15.40
2018-09-30T16:41:01.369Z,15.30
2018-09-30T16:46:12.968Z,15.30
2018-09-30T16:48:41.430Z,15.20
2018-09-30T16:51:11.435Z,15.10
2018-09-30T16:53:43.600Z,14.90
2018-09-30T16:56:14.697Z,14.80
2018-09-30T16:58:46.976Z,14.70
2018-09-30T17:01:18.040Z,14.70
2018-09-30T17:03:51.135Z,14.60
2018-09-30T17:06:22.435Z,14.50
2018-09-30T17:08:53.146Z,14.50
2018-09-30T17:11:26.211Z,14.40
2018-09-30T17:13:59.270Z,14.40
2018-09-30T17:16:30.781Z,14.30
2018-09-30T17:19:05.638Z,14.20
2018-09-30T17:21:39.034Z,14.20
2018-09-30T17:24:11.575Z,14.10
2018-09-30T17:26:44.119Z,14.10
2018-09-30T17:29:16.547Z,14.00
2018-09-30T17:31:47.905Z,13.90
2018-09-30T17:34:23.520Z,13.90
2018-09-30T17:36:52.907Z,13.80
2018-09-30T17:39:22.451Z,13.80
2018-09-30T17:41:53.907Z,13.60
2018-09-30T17:44:46.347Z,13.60
2018-09-30T18:08:08.327Z,13.50
2018-09-30T18:14:28.618Z,12.80
2018-09-30T18:16:59.053Z,12.80
2018-09-30T18:19:28.473Z,12.80
2018-09-30T18:21:58.481Z,12.70
2018-09-30T18:24:33.165Z,12.60
2018-09-30T18:27:02.176Z,12.50
2018-09-30T18:29:31.570Z,12.40
2018-09-30T18:32:00.587Z,12.30
2018-09-30T18:34:31.019Z,12.20
2018-09-30T18:36:59.265Z,12.20
2018-09-30T18:39:28.321Z,12.10
2018-09-30T18:41:58.948Z,12.10
2018-09-30T18:44:35.439Z,12.00
2018-09-30T18:47:09.613Z,12.00
2018-09-30T19:04:18.525Z,11.80
2018-09-30T19:06:47.981Z,11.50
2018-09-30T19:09:24.608Z,11.30
2018-09-30T19:11:53.154Z,11.30
2018-09-30T19:20:09.382Z,11.20
2018-09-30T19:30:30.023Z,10.70
2018-09-30T19:33:09.207Z,10.70
2018-09-30T19:35:38.062Z,10.70
2018-09-30T19:38:08.097Z,10.70
2018-09-30T19:40:36.763Z,10.60
2018-09-30T19:43:06.833Z,10.70
2018-09-30T19:45:35.877Z,10.60
2018-09-30T19:48:04.780Z,10.60
2018-09-30T19:50:33.520Z,10.60
2018-09-30T19:53:02.093Z,10.50
2018-09-30T19:55:30.593Z,10.50
2018-09-30T19:57:58.819Z,10.60
2018-09-30T20:00:27.673Z,10.60
2018-09-30T20:02:56.216Z,10.50
2018-09-30T20:05:24.982Z,10.50
2018-09-30T20:07:53.503Z,10.50
2018-09-30T20:10:21.958Z,10.50
2018-09-30T20:12:50.415Z,10.50
2018-09-30T20:15:24.015Z,10.50
2018-09-30T20:17:52.830Z,10.60
2018-09-30T20:20:21.035Z,10.60
2018-09-30T20:22:49.098Z,10.70
2018-09-30T20:25:24.187Z,10.70
2018-09-30T20:27:52.389Z,10.80
2018-09-30T20:30:20.592Z,10.80
2018-09-30T20:32:56.908Z,10.90
2018-09-30T20:35:38.243Z,10.90
2018-09-30T20:38:11.114Z,10.90
2018-09-30T20:40:49.177Z,10.90
2018-09-30T20:43:39.408Z,11.00
2018-09-30T20:49:41.212Z,11.00
2018-09-30T21:20:13.757Z,11.10
2018-09-30T21:22:41.813Z,11.30
2018-09-30T21:25:21.980Z,11.40
2018-09-30T21:27:51.004Z,11.40
2018-09-30T21:30:19.878Z,11.40
2018-09-30T21:32:49.682Z,11.40
2018-09-30T21:35:23.604Z,11.40
2018-09-30T21:37:51.839Z,11.40
2018-09-30T21:40:20.777Z,11.40
2018-09-30T21:42:49.072Z,11.40
2018-09-30T21:45:36.947Z,11.50
2018-09-30T21:48:05.065Z,11.40
2018-09-30T21:50:33.017Z,11.50
2018-09-30T21:53:02.371Z,11.50
2018-09-30T21:55:30.630Z,11.50
2018-09-30T21:57:58.682Z,11.50
2018-09-30T22:00:32.252Z,11.50
2018-09-30T22:03:00.357Z,11.50
2018-09-30T22:05:28.596Z,11.40
2018-09-30T22:07:56.737Z,11.40
2018-09-30T22:10:26.568Z,11.40
2018-09-30T22:12:59.510Z,11.40
2018-09-30T22:15:28.110Z,11.40
2018-09-30T22:17:56.841Z,11.40
2018-09-30T22:20:25.013Z,11.40
2018-09-30T22:22:53.904Z,11.40
2018-09-30T22:25:22.382Z,11.40
2018-09-30T22:27:51.147Z,11.40
2018-09-30T22:30:19.749Z,11.40
2018-09-30T22:32:48.307Z,11.40
2018-09-30T22:35:21.981Z,11.40
2018-09-30T22:37:50.256Z,11.40
2018-09-30T22:40:18.543Z,11.40
2018-09-30T22:42:46.767Z,11.40
2018-09-30T22:48:23.968Z,11.30
2018-09-30T22:50:53.649Z,11.30
2018-09-30T22:53:41.578Z,11.30
2018-09-30T22:56:09.662Z,11.30
2018-09-30T22:58:37.680Z,11.30
2018-09-30T23:01:06.042Z,11.30
2018-09-30T23:03:40.410Z,11.30
2018-09-30T23:06:08.933Z,11.30
2018-09-30T23:08:37.504Z,11.30
2018-09-30T23:11:06.410Z,11.30
2018-09-30T23:13:38.112Z,11.30
2018-09-30T23:16:06.708Z,11.30
2018-09-30T23:18:36.736Z,11.30
2018-09-30T23:21:05.766Z,11.30
2018-09-30T23:23:46.607Z,11.20
2018-09-30T23:26:16.778Z,11.20
2018-09-30T23:28:47.311Z,11.10
2018-09-30T23:31:17.668Z,11.10
2018-09-30T23:33:48.643Z,11.10
2018-09-30T23:36:17.358Z,11.00
2018-09-30T23:38:46.294Z,11.00
2018-09-30T23:41:15.024Z,11.00
2018-09-30T23:43:49.556Z,11.00
2018-09-30T23:46:20.517Z,11.00
2018-09-30T23:48:48.980Z,11.00
2018-09-30T23:51:18.570Z,11.00
2018-09-30T23:53:48.556Z,11.00
2018-09-30T23:56:18.825Z,11.10
2018-09-30T23:58:48.210Z,11.10
